Metar
Geneve

LSGG 152050Z AUTO 03011KT 9999 SCT028 BKN033 01/M03 Q1024

Payerne

LSMP 152050Z AUTO 07009KT 050V110 9999NDV OVC037 M01/M04 Q1025 RMK

Eplatures

LSGC 051550Z 13006KT 080V170 CAVOK 15/M05 Q1019

Berne

LSZB 152050Z 34004KT 290V020 9999 SCT044 M03/M06 Q1025 NOSIG

Granges

LSZG 152050Z AUTO 06005KT 6000 FEW028 M05/M05 Q1026

Sion

LSGS 152050Z AUTO 24004KT 190V320 CAVOK 01/M01 Q1021

Annecy

LFLP 152100Z AUTO 04007KT 9999 OVC038 01/M01 Q1023

Taf
Geneve

TAF TAF LSGG 152025Z 1521/1703 03010KT 9999 FEW015 BKN030 TX02/1615Z TNM03/1605Z BECMG 1522/1524 BKN012 BECMG 1610/1612 SCT015

Eplatures

TAF AMD TAF AMD LSGC 270646Z 2706/2718 VRB03KT 9000 OVC015 BECMG 2712/2715 9999 SCT020

Berne

TAF AMD TAF AMD LSZB 222054Z 2220/2224 CNL

Granges

TAF AMD LSZG 222054Z 2220/2224 CNL

Sion

TAF AMD LSGS 242023Z 2415/2424 CNL

Annecy

TAF AMD LFLP 152003Z 1520/1615 CNL